Watch Hill, Rhode Island
Current Conditions -  °F | °C
As of 12:45 PM on Monday 22 Dec 2014 (Local Time) from KWST Reporting Station
Broken Clouds Broken Clouds  
Wind Chill: 42°   Ceiling: 4100
Heat Index: 47°   Visibility: 10mi
Dew Point: 37°   Wind: 12mph
Humidity: 68%   Direction: 110°ESE
Pressure: 30.32"   Gusts: NA
Location:  41.3616°N, 71.7933°W
Report Text: KWST 221745Z AUTO 11010KT 10SM SCT020 BKN041 08/03 A3032 RMK AO2 T00830028
Loading
Personal Weather Stations






























Interactive Weather Map New forecast layout! Learn more

10-Day Weather Forecast

Advertisements
Track Severe Weather on mobile